Time;durP1;ratioP1;P1;durP2;ratioP2;P2;SDS_P1;SDS_P2;PMS_P1;PMS_P2;Temp;Humidity;BMP_temperature;BMP_pressure;BME280_temperature;BME280_humidity;BME280_pressure;Samples;Min_cycle;Max_cycle;Signal;HPM_P1;HPM_P2
2023/05/01 00:00:51;;;;;;;0.00;0.00;;;10.20;99.90;;;;;;5089246;28;20194;-59
2023/05/01 00:03:17;;;;;;;0.00;0.00;;;10.20;99.90;;;;;;5090213;28;20241;-59
2023/05/01 00:05:43;;;;;;;0.00;0.00;;;10.10;99.90;;;;;;5090646;28;20612;-59
2023/05/01 00:08:10;;;;;;;0.00;0.00;;;10.10;99.90;;;;;;5090117;28;20199;-59
2023/05/01 00:10:36;;;;;;;0.00;0.00;;;10.10;99.90;;;;;;5090559;28;20183;-59
2023/05/01 00:13:01;;;;;;;0.00;0.00;;;10.10;99.90;;;;;;5088664;28;20632;-59
2023/05/01 00:15:27;;;;;;;0.00;0.00;;;10.10;99.90;;;;;;5089794;28;20196;-59
2023/05/01 00:17:53;;;;;;;0.00;0.00;;;10.10;99.90;;;;;;5090261;28;20717;-59
2023/05/01 00:20:18;;;;;;;0.00;0.00;;;10.10;99.90;;;;;;5089916;28;20180;-59
2023/05/01 00:22:44;;;;;;;0.00;0.00;;;10.20;99.90;;;;;;5089880;28;20183;-59
2023/05/01 00:25:10;;;;;;;0.00;0.00;;;10.10;99.90;;;;;;5089876;28;20176;-59
2023/05/01 00:27:35;;;;;;;0.00;0.00;;;10.10;99.90;;;;;;5090348;28;20172;-59
2023/05/01 00:30:01;;;;;;;0.00;0.00;;;10.10;99.90;;;;;;5089408;28;20231;-59
2023/05/01 00:32:26;;;;;;;0.00;0.00;;;10.10;99.90;;;;;;5090340;28;20176;-59
2023/05/01 00:34:52;;;;;;;0.00;0.00;;;10.20;99.90;;;;;;5088685;28;20195;-59
2023/05/01 00:37:18;;;;;;;0.10;0.10;;;10.20;99.90;;;;;;5089996;28;20215;-59
2023/05/01 00:39:43;;;;;;;0.00;0.00;;;10.20;99.90;;;;;;5089876;28;20179;-58
2023/05/01 00:42:09;;;;;;;0.30;0.30;;;10.20;99.90;;;;;;5090181;28;20172;-59
2023/05/01 00:44:34;;;;;;;0.00;0.00;;;10.20;99.90;;;;;;5090278;28;20655;-59
2023/05/01 00:47:01;;;;;;;0.00;0.00;;;10.20;99.90;;;;;;5089988;28;20184;-59
2023/05/01 00:49:27;;;;;;;0.00;0.00;;;10.30;99.90;;;;;;5090087;28;20227;-59
2023/05/01 00:51:53;;;;;;;0.00;0.00;;;10.20;99.90;;;;;;5090368;28;20282;-59
2023/05/01 00:54:19;;;;;;;0.00;0.00;;;10.30;99.90;;;;;;5090268;28;20183;-59
2023/05/01 00:56:49;;;;;;;0.00;0.00;;;10.30;99.90;;;;;;5090298;28;20207;-59
2023/05/01 00:59:15;;;;;;;0.25;0.25;;;10.30;99.90;;;;;;5089243;28;20225;-59
2023/05/01 01:01:41;;;;;;;0.00;0.00;;;10.30;99.90;;;;;;5089084;28;20707;-59
2023/05/01 01:04:07;;;;;;;0.00;0.00;;;10.40;99.90;;;;;;5090032;28;20278;-59
2023/05/01 01:06:54;;;;;;;0.08;0.08;;;10.40;99.90;;;;;;5089641;28;20270;-59
2023/05/01 01:09:35;;;;;;;0.10;0.10;;;10.40;99.90;;;;;;5088831;28;20216;-59
2023/05/01 01:12:05;;;;;;;0.00;0.00;;;10.40;99.90;;;;;;5089952;28;20187;-60
2023/05/01 01:14:37;;;;;;;0.00;0.00;;;10.50;99.90;;;;;;5086731;28;20187;-59
2023/05/01 01:17:16;;;;;;;0.00;0.00;;;10.50;99.90;;;;;;5089197;28;20188;-59
2023/05/01 01:20:06;;;;;;;0.00;0.00;;;10.50;99.90;;;;;;5083806;28;20179;-59
2023/05/01 01:22:35;;;;;;;0.10;0.10;;;10.50;99.90;;;;;;5089202;28;20284;-59
2023/05/01 01:25:52;;;;;;;0.00;0.00;;;10.50;99.90;;;;;;5088584;28;20354;-59
2023/05/01 01:29:01;;;;;;;0.00;0.00;;;10.50;99.90;;;;;;5007696;28;20825;-59
2023/05/01 01:31:53;;;;;;;0.00;0.00;;;10.50;99.90;;;;;;5010664;28;20202;-59
2023/05/01 01:34:24;;;;;;;0.00;0.00;;;10.40;99.90;;;;;;5066171;28;20274;-59
2023/05/01 01:37:00;;;;;;;0.03;0.03;;;10.40;99.90;;;;;;5093158;28;20680;-59
2023/05/01 01:39:35;;;;;;;0.10;0.10;;;10.40;99.90;;;;;;5093500;28;20172;-59
2023/05/01 01:42:06;;;;;;;0.00;0.00;;;10.40;99.90;;;;;;5093337;28;20180;-59
2023/05/01 01:44:37;;;;;;;0.05;0.05;;;10.40;99.90;;;;;;5093265;28;20204;-59
2023/05/01 01:47:08;;;;;;;0.00;0.00;;;10.40;99.90;;;;;;5088683;28;20685;-59
2023/05/01 01:49:39;;;;;;;0.00;0.00;;;10.40;99.90;;;;;;5092976;28;20307;-59
2023/05/01 01:52:06;;;;;;;0.00;0.00;;;10.40;99.90;;;;;;5093256;28;20259;-59
2023/05/01 01:54:37;;;;;;;0.00;0.00;;;10.40;99.90;;;;;;5092575;28;20188;-59
2023/05/01 01:57:04;;;;;;;0.10;0.10;;;10.40;99.90;;;;;;5088142;28;20180;-59
2023/05/01 01:59:33;;;;;;;0.00;0.00;;;10.40;99.90;;;;;;5091866;28;20180;-59
2023/05/01 02:02:00;;;;;;;0.00;0.00;;;10.40;99.90;;;;;;5092829;28;20168;-59
2023/05/01 02:04:27;;;;;;;0.00;0.00;;;10.40;99.90;;;;;;5093216;28;20253;-59
2023/05/01 02:06:56;;;;;;;0.00;0.00;;;10.40;99.90;;;;;;5092933;28;20180;-59
2023/05/01 02:09:23;;;;;;;0.17;0.17;;;10.40;99.90;;;;;;5092612;28;20247;-59
2023/05/01 02:11:50;;;;;;;0.00;0.00;;;10.40;99.90;;;;;;5082551;28;20187;-59
2023/05/01 02:14:18;;;;;;;0.00;0.00;;;10.40;99.90;;;;;;5091306;28;20747;-59
2023/05/01 02:16:44;;;;;;;0.00;0.00;;;10.40;99.90;;;;;;5092872;28;20192;-59
2023/05/01 02:19:12;;;;;;;0.00;0.00;;;10.40;99.90;;;;;;5092544;28;20180;-59
2023/05/01 02:21:38;;;;;;;0.00;0.00;;;10.40;99.90;;;;;;5092498;28;20210;-59
2023/05/01 02:24:05;;;;;;;0.00;0.00;;;10.40;99.90;;;;;;5092409;28;20224;-59
2023/05/01 02:26:32;;;;;;;0.00;0.00;;;10.40;99.90;;;;;;5092863;28;20271;-59
2023/05/01 02:28:58;;;;;;;0.17;0.10;;;10.40;99.90;;;;;;5092223;28;20698;-59
2023/05/01 02:31:23;;;;;;;0.00;0.00;;;10.40;99.90;;;;;;5092177;28;20188;-59
2023/05/01 02:33:49;;;;;;;0.00;0.00;;;10.40;99.90;;;;;;5091925;28;20525;-59
2023/05/01 02:36:14;;;;;;;0.00;0.00;;;10.40;99.90;;;;;;5092413;28;20172;-59
2023/05/01 02:38:41;;;;;;;0.00;0.00;;;10.40;99.90;;;;;;5091083;28;20183;-59
2023/05/01 02:41:08;;;;;;;0.00;0.00;;;10.30;99.90;;;;;;5091950;28;20198;-59
2023/05/01 02:43:35;;;;;;;0.17;0.17;;;10.30;99.90;;;;;;5092146;28;20216;-59
2023/05/01 02:46:03;;;;;;;0.10;0.10;;;10.30;99.90;;;;;;5076526;28;20179;-59
2023/05/01 02:48:31;;;;;;;0.00;0.00;;;10.30;99.90;;;;;;5092128;28;20206;-58
2023/05/01 02:50:57;;;;;;;0.00;0.00;;;10.30;99.90;;;;;;5092187;28;20180;-59
2023/05/01 02:53:23;;;;;;;0.00;0.00;;;10.30;99.90;;;;;;5092075;28;20206;-59
2023/05/01 02:55:52;;;;;;;0.22;0.22;;;10.30;99.90;;;;;;5091591;28;20180;-59
2023/05/01 02:58:18;;;;;;;0.00;0.00;;;10.30;99.90;;;;;;5091909;28;20179;-59
2023/05/01 03:00:44;;;;;;;0.00;0.00;;;10.30;99.90;;;;;;5092036;28;20172;-59
2023/05/01 03:03:10;;;;;;;0.00;0.00;;;10.30;99.90;;;;;;5090245;28;20188;-59
2023/05/01 03:05:37;;;;;;;0.00;0.00;;;10.30;99.90;;;;;;5091876;28;20211;-59
2023/05/01 03:08:03;;;;;;;0.52;0.52;;;10.30;99.90;;;;;;5075658;28;20180;-59
2023/05/01 03:10:28;;;;;;;0.00;0.00;;;10.30;99.90;;;;;;5091921;28;20194;-59
2023/05/01 03:12:54;;;;;;;0.00;0.00;;;10.30;99.90;;;;;;5091496;28;20321;-59
2023/05/01 03:15:20;;;;;;;0.00;0.00;;;10.30;99.90;;;;;;5091628;28;20684;-59
2023/05/01 03:17:45;;;;;;;0.00;0.00;;;10.30;99.90;;;;;;5091175;28;20180;-59
2023/05/01 03:20:11;;;;;;;0.00;0.00;;;10.30;99.90;;;;;;5091604;28;20342;-59
2023/05/01 03:22:36;;;;;;;0.00;0.00;;;10.30;99.90;;;;;;5091541;28;20251;-58
2023/05/01 03:25:03;;;;;;;0.00;0.00;;;10.20;99.90;;;;;;5091415;28;20224;-59
2023/05/01 03:27:29;;;;;;;0.00;0.00;;;10.30;99.90;;;;;;5091437;28;20530;-59
2023/05/01 03:29:55;;;;;;;0.00;0.00;;;10.30;99.90;;;;;;5091154;28;20330;-59
2023/05/01 03:32:21;;;;;;;0.00;0.00;;;10.30;99.90;;;;;;5091284;28;20176;-59
2023/05/01 03:34:47;;;;;;;0.00;0.00;;;10.20;99.90;;;;;;5091529;28;20267;-59
2023/05/01 03:37:14;;;;;;;0.57;0.57;;;10.20;99.90;;;;;;5090399;28;20190;-59
2023/05/01 03:39:40;;;;;;;0.08;0.08;;;10.20;99.90;;;;;;5090802;28;20191;-58
2023/05/01 03:42:05;;;;;;;0.00;0.00;;;10.20;99.90;;;;;;5091238;28;21288;-59
2023/05/01 03:44:31;;;;;;;0.00;0.00;;;10.20;99.90;;;;;;5091135;28;20184;-59
2023/05/01 03:46:57;;;;;;;0.00;0.00;;;10.20;99.90;;;;;;5091042;28;20286;-59
2023/05/01 03:49:22;;;;;;;0.00;0.00;;;10.20;99.90;;;;;;5090491;28;20277;-58
2023/05/01 03:51:48;;;;;;;0.00;0.00;;;10.20;99.90;;;;;;5090492;28;20179;-58
2023/05/01 03:54:14;;;;;;;0.00;0.00;;;10.10;99.90;;;;;;5090461;28;20214;-59
2023/05/01 03:56:39;;;;;;;0.00;0.00;;;10.10;99.90;;;;;;5091010;28;20183;-59
2023/05/01 03:59:05;;;;;;;0.00;0.00;;;10.10;99.90;;;;;;5090220;28;20314;-59
2023/05/01 04:01:34;;;;;;;0.00;0.00;;;10.10;99.90;;;;;;5090326;28;20237;-58
2023/05/01 04:04:00;;;;;;;0.00;0.00;;;10.10;99.90;;;;;;5090659;28;20213;-59
2023/05/01 04:06:26;;;;;;;0.00;0.00;;;10.10;99.90;;;;;;5090808;28;20281;-59
2023/05/01 04:08:52;;;;;;;0.00;0.00;;;10.10;99.90;;;;;;5090625;28;20585;-59
2023/05/01 04:11:18;;;;;;;0.00;0.00;;;10.20;99.90;;;;;;5090528;28;20184;-59
2023/05/01 04:13:43;;;;;;;0.10;0.10;;;10.20;99.90;;;;;;5090003;28;20176;-59
2023/05/01 04:16:09;;;;;;;0.00;0.00;;;10.20;99.90;;;;;;5090474;28;20229;-59
2023/05/01 04:18:34;;;;;;;0.00;0.00;;;10.20;99.90;;;;;;5090604;28;20253;-59
2023/05/01 04:21:00;;;;;;;0.00;0.00;;;10.20;99.90;;;;;;5090542;28;20195;-59
2023/05/01 04:23:25;;;;;;;0.00;0.00;;;10.20;99.90;;;;;;5090459;28;20269;-59
2023/05/01 04:25:51;;;;;;;0.00;0.00;;;10.30;99.90;;;;;;5090618;28;20517;-59
2023/05/01 04:28:16;;;;;;;0.00;0.00;;;10.30;99.90;;;;;;5090274;28;20595;-59
2023/05/01 04:30:42;;;;;;;0.00;0.00;;;10.30;99.90;;;;;;5090196;28;20198;-59
2023/05/01 04:33:10;;;;;;;0.00;0.00;;;10.30;99.90;;;;;;5090233;28;20168;-59
2023/05/01 04:35:39;;;;;;;0.00;0.00;;;10.20;99.90;;;;;;5090148;28;20180;-59
2023/05/01 04:38:05;;;;;;;0.00;0.00;;;10.30;99.90;;;;;;5089582;28;20424;-59
2023/05/01 04:40:31;;;;;;;0.00;0.00;;;10.30;99.90;;;;;;5090027;28;20172;-59
2023/05/01 04:42:56;;;;;;;0.00;0.00;;;10.30;99.90;;;;;;5090200;28;20176;-59
2023/05/01 04:45:22;;;;;;;0.00;0.00;;;10.30;99.90;;;;;;5089835;28;20191;-59
2023/05/01 04:47:48;;;;;;;0.00;0.00;;;10.30;99.90;;;;;;5089838;28;20180;-59
2023/05/01 04:50:13;;;;;;;0.00;0.00;;;10.30;99.90;;;;;;5089398;28;20196;-59
2023/05/01 04:52:39;;;;;;;0.00;0.00;;;10.30;99.90;;;;;;5090039;28;20172;-59
2023/05/01 04:55:05;;;;;;;0.00;0.00;;;10.30;99.90;;;;;;5088481;28;20288;-59
2023/05/01 04:57:31;;;;;;;0.00;0.00;;;10.30;99.90;;;;;;5089856;28;20611;-59
2023/05/01 04:59:57;;;;;;;0.22;0.22;;;10.30;99.90;;;;;;5089404;28;20263;-59
2023/05/01 05:02:23;;;;;;;0.00;0.00;;;10.30;99.90;;;;;;5085717;28;20184;-59
2023/05/01 05:04:49;;;;;;;0.00;0.00;;;10.40;99.90;;;;;;5093213;28;20259;-59
2023/05/01 05:07:14;;;;;;;0.00;0.00;;;10.40;99.90;;;;;;5086661;28;20187;-59
2023/05/01 05:09:40;;;;;;;0.00;0.00;;;10.50;99.90;;;;;;5093252;28;20216;-59
2023/05/01 05:12:05;;;;;;;0.00;0.00;;;10.50;99.90;;;;;;5092844;28;20187;-59
2023/05/01 05:14:31;;;;;;;0.00;0.00;;;10.50;99.90;;;;;;5092846;28;20263;-59
2023/05/01 05:16:57;;;;;;;0.00;0.00;;;10.60;99.90;;;;;;5093386;28;20186;-59
2023/05/01 05:19:22;;;;;;;0.00;0.00;;;10.60;99.90;;;;;;5093293;28;20220;-59
2023/05/01 05:21:48;;;;;;;0.00;0.00;;;10.60;99.90;;;;;;5093642;28;20175;-59
2023/05/01 05:24:13;;;;;;;0.00;0.00;;;10.60;99.90;;;;;;5092710;28;20228;-59
2023/05/01 05:26:39;;;;;;;0.00;0.00;;;10.60;99.90;;;;;;5093010;28;20172;-59
2023/05/01 05:29:05;;;;;;;0.00;0.00;;;10.60;99.90;;;;;;5093316;28;20234;-59
2023/05/01 05:31:30;;;;;;;0.00;0.00;;;10.60;99.90;;;;;;5093318;28;20701;-59
2023/05/01 05:33:56;;;;;;;0.00;0.00;;;10.60;99.90;;;;;;5093098;28;20176;-59
2023/05/01 05:36:21;;;;;;;0.00;0.00;;;10.60;99.90;;;;;;5092562;28;20191;-59
2023/05/01 05:38:47;;;;;;;0.00;0.00;;;10.60;99.90;;;;;;5093080;28;20183;-59
2023/05/01 05:41:12;;;;;;;0.10;0.10;;;10.60;99.90;;;;;;5092722;28;20176;-59
2023/05/01 05:43:38;;;;;;;0.00;0.00;;;10.60;99.90;;;;;;5092816;28;20187;-59
2023/05/01 05:46:03;;;;;;;0.00;0.00;;;10.60;99.90;;;;;;5092958;28;20172;-59
2023/05/01 05:48:29;;;;;;;0.00;0.00;;;10.60;99.90;;;;;;5092539;28;20226;-59
2023/05/01 05:50:56;;;;;;;0.00;0.00;;;10.60;99.90;;;;;;5092961;28;20271;-60
2023/05/01 05:53:21;;;;;;;0.00;0.00;;;10.50;99.90;;;;;;5092714;28;20187;-59
2023/05/01 05:55:47;;;;;;;0.00;0.00;;;10.50;99.90;;;;;;5092920;28;20180;-59
2023/05/01 05:58:18;;;;;;;0.10;0.10;;;10.50;99.90;;;;;;5090901;28;20177;-59
2023/05/01 06:00:45;;;;;;;0.00;0.00;;;10.50;99.90;;;;;;5092541;28;20168;-59
2023/05/01 06:03:11;;;;;;;0.08;0.08;;;10.50;99.90;;;;;;5092027;28;20569;-59
2023/05/01 06:05:36;;;;;;;0.00;0.00;;;10.50;99.90;;;;;;5092333;28;20175;-59
2023/05/01 06:08:02;;;;;;;0.00;0.00;;;10.50;99.90;;;;;;5092376;28;20172;-60
2023/05/01 06:10:28;;;;;;;0.10;0.10;;;10.60;99.90;;;;;;5091354;28;20218;-61
2023/05/01 06:12:53;;;;;;;0.00;0.00;;;10.60;99.90;;;;;;5091928;28;20542;-60
2023/05/01 06:15:20;;;;;;;0.00;0.00;;;10.60;99.90;;;;;;5091843;28;20188;-58
2023/05/01 06:17:45;;;;;;;0.00;0.00;;;10.70;99.90;;;;;;5091798;28;20255;-59
2023/05/01 06:20:12;;;;;;;0.00;0.00;;;10.70;99.90;;;;;;5088373;28;20601;-58
2023/05/01 06:22:38;;;;;;;0.13;0.13;;;10.80;99.90;;;;;;5091864;28;20187;-59
2023/05/01 06:25:05;;;;;;;0.00;0.00;;;10.90;99.90;;;;;;5092199;28;20681;-58
2023/05/01 06:27:30;;;;;;;0.00;0.00;;;11.10;99.90;;;;;;5092128;28;20277;-59
2023/05/01 06:29:56;;;;;;;0.00;0.00;;;11.20;99.90;;;;;;5091812;28;20674;-60
2023/05/01 06:32:22;;;;;;;0.00;0.00;;;11.30;99.90;;;;;;5092071;28;20479;-59
2023/05/01 06:34:47;;;;;;;0.00;0.00;;;11.40;99.90;;;;;;5090537;28;20176;-60
2023/05/01 06:37:13;;;;;;;0.00;0.00;;;11.50;99.90;;;;;;5092177;28;20297;-61
2023/05/01 06:39:38;;;;;;;0.00;0.00;;;11.70;99.90;;;;;;5091566;28;20333;-60
2023/05/01 06:42:05;;;;;;;0.00;0.00;;;11.70;99.90;;;;;;5091905;28;20176;-60
2023/05/01 06:44:31;;;;;;;0.00;0.00;;;11.80;99.90;;;;;;5090828;28;20255;-59
2023/05/01 06:46:57;;;;;;;0.10;0.10;;;11.90;99.90;;;;;;5091978;28;20270;-60
2023/05/01 06:49:23;;;;;;;0.00;0.00;;;11.90;99.90;;;;;;5091320;28;20294;-59
2023/05/01 06:51:48;;;;;;;0.00;0.00;;;12.00;99.90;;;;;;5091913;28;20677;-59
2023/05/01 06:54:14;;;;;;;0.10;0.10;;;11.90;99.90;;;;;;5091678;28;20176;-59
2023/05/01 06:56:39;;;;;;;0.00;0.00;;;12.00;99.90;;;;;;5092335;28;20176;-59
2023/05/01 06:59:05;;;;;;;0.00;0.00;;;12.00;99.90;;;;;;5092210;28;20642;-60
2023/05/01 07:01:30;;;;;;;0.00;0.00;;;12.00;99.90;;;;;;5092179;28;20237;-59
2023/05/01 07:03:56;;;;;;;0.00;0.00;;;12.10;99.90;;;;;;5091791;28;20176;-59
2023/05/01 07:06:21;;;;;;;0.00;0.00;;;12.10;99.90;;;;;;5091584;28;20184;-59
2023/05/01 07:08:47;;;;;;;0.13;0.13;;;12.20;99.90;;;;;;5091923;28;20227;-59
2023/05/01 07:11:13;;;;;;;0.00;0.00;;;12.20;99.90;;;;;;5091769;28;20179;-59
2023/05/01 07:13:38;;;;;;;0.00;0.00;;;12.20;99.90;;;;;;5091767;28;20176;-59
2023/05/01 07:16:04;;;;;;;0.00;0.00;;;12.20;99.90;;;;;;5090942;28;20180;-59
2023/05/01 07:18:29;;;;;;;0.00;0.00;;;12.20;99.90;;;;;;5091294;28;20187;-59
2023/05/01 07:20:55;;;;;;;0.00;0.00;;;12.20;99.90;;;;;;5090663;28;20227;-59
2023/05/01 07:23:22;;;;;;;0.00;0.00;;;12.20;99.90;;;;;;5090675;28;20707;-59
2023/05/01 07:25:47;;;;;;;0.00;0.00;;;12.30;99.90;;;;;;5090609;28;20188;-60
2023/05/01 07:28:13;;;;;;;0.03;0.03;;;12.30;99.90;;;;;;5090813;28;20172;-59
2023/05/01 07:30:39;;;;;;;0.00;0.00;;;12.40;99.90;;;;;;5091325;28;20223;-59
2023/05/01 07:33:04;;;;;;;0.00;0.00;;;12.50;99.90;;;;;;5090939;28;20179;-60
2023/05/01 07:35:31;;;;;;;0.15;0.15;;;12.60;99.90;;;;;;5091104;28;20661;-59
2023/05/01 07:37:57;;;;;;;0.00;0.00;;;12.70;99.90;;;;;;5091020;28;20207;-60
2023/05/01 07:40:22;;;;;;;0.00;0.00;;;12.90;99.90;;;;;;5090767;28;20636;-59
2023/05/01 07:42:48;;;;;;;0.00;0.00;;;13.10;99.90;;;;;;5089901;28;20179;-59
2023/05/01 07:45:13;;;;;;;0.00;0.00;;;13.20;99.90;;;;;;5090693;28;20192;-59
2023/05/01 07:47:39;;;;;;;0.00;0.00;;;13.20;99.90;;;;;;5091090;28;20176;-59
2023/05/01 07:50:09;;;;;;;0.00;0.00;;;13.30;99.90;;;;;;5090783;28;20215;-59
2023/05/01 07:52:35;;;;;;;0.00;0.00;;;13.30;99.90;;;;;;5091216;28;20179;-59
2023/05/01 07:55:01;;;;;;;0.00;0.00;;;13.30;99.90;;;;;;5091351;28;20221;-59
2023/05/01 07:57:26;;;;;;;0.00;0.00;;;13.40;99.90;;;;;;5090640;28;20202;-59
2023/05/01 07:59:55;;;;;;;0.00;0.00;;;13.40;99.90;;;;;;5089671;28;20191;-59
2023/05/01 08:02:21;;;;;;;0.00;0.00;;;13.50;99.90;;;;;;5091307;28;20175;-59
2023/05/01 08:04:47;;;;;;;0.00;0.00;;;13.60;99.90;;;;;;5091210;28;20176;-59
2023/05/01 08:07:13;;;;;;;0.00;0.00;;;13.70;99.90;;;;;;5090461;28;20188;-59
2023/05/01 08:09:39;;;;;;;0.00;0.00;;;13.80;99.90;;;;;;5089398;28;20341;-58
2023/05/01 08:12:04;;;;;;;0.00;0.00;;;13.90;99.90;;;;;;5090731;28;20266;-59
2023/05/01 08:14:30;;;;;;;0.00;0.00;;;14.20;99.90;;;;;;5090069;28;20183;-59
2023/05/01 08:16:55;;;;;;;0.00;0.00;;;14.40;99.90;;;;;;5091128;28;20176;-59
2023/05/01 08:19:22;;;;;;;0.00;0.00;;;14.60;99.90;;;;;;5091016;28;20237;-59
2023/05/01 08:21:47;;;;;;;0.00;0.00;;;14.70;99.90;;;;;;5091017;28;20176;-60
2023/05/01 08:24:13;;;;;;;0.00;0.00;;;14.90;99.60;;;;;;5090181;28;20323;-60
2023/05/01 08:26:38;;;;;;;0.00;0.00;;;15.10;99.80;;;;;;5091072;28;20650;-60
2023/05/01 08:29:04;;;;;;;0.10;0.10;;;15.40;99.20;;;;;;5090882;28;20210;-59
2023/05/01 08:31:30;;;;;;;0.00;0.00;;;15.50;98.70;;;;;;5090956;28;20180;-59
2023/05/01 08:33:55;;;;;;;0.00;0.00;;;15.70;98.20;;;;;;5090863;28;20659;-60
2023/05/01 08:36:21;;;;;;;0.00;0.00;;;16.00;97.70;;;;;;5091745;28;20178;-60
2023/05/01 08:38:46;;;;;;;0.08;0.08;;;16.30;97.40;;;;;;5094835;28;20182;-60
2023/05/01 08:41:21;;;;;;;0.00;0.00;;;16.50;97.00;;;;;;5094522;28;20584;-60
2023/05/01 08:43:47;;;;;;;0.00;0.00;;;16.80;96.10;;;;;;5094972;28;20251;-60
2023/05/01 08:46:23;;;;;;;0.00;0.00;;;17.00;95.10;;;;;;5094955;28;20180;-60
2023/05/01 08:48:50;;;;;;;0.08;0.08;;;17.10;93.50;;;;;;5094735;28;20678;-60
2023/05/01 08:51:19;;;;;;;0.00;0.00;;;17.20;92.60;;;;;;5094649;28;20249;-60
2023/05/01 08:53:49;;;;;;;0.00;0.00;;;17.30;92.30;;;;;;5095052;28;20546;-60
2023/05/01 08:56:15;;;;;;;0.00;0.00;;;17.40;91.60;;;;;;5094727;28;20215;-61
2023/05/01 08:58:44;;;;;;;0.00;0.00;;;17.50;90.90;;;;;;5094174;28;20206;-59
2023/05/01 09:01:14;;;;;;;0.00;0.00;;;17.50;91.10;;;;;;5094182;28;20669;-59
2023/05/01 09:03:41;;;;;;;0.00;0.00;;;17.60;90.90;;;;;;5094371;28;20313;-59
2023/05/01 09:06:08;;;;;;;0.00;0.00;;;17.60;90.50;;;;;;5094038;28;20184;-60
2023/05/01 09:08:33;;;;;;;0.00;0.00;;;17.70;90.80;;;;;;5093922;28;20219;-59
2023/05/01 09:11:00;;;;;;;0.00;0.00;;;17.70;90.80;;;;;;5094346;28;20172;-60
2023/05/01 09:13:26;;;;;;;0.00;0.00;;;17.70;90.60;;;;;;5093887;28;20165;-59
2023/05/01 09:15:51;;;;;;;0.00;0.00;;;17.90;90.70;;;;;;5094239;28;20195;-60
2023/05/01 09:18:17;;;;;;;0.00;0.00;;;18.10;93.00;;;;;;5092666;28;20534;-60
2023/05/01 09:20:42;;;;;;;0.00;0.00;;;18.70;92.10;;;;;;5093185;28;20172;-59
2023/05/01 09:23:08;;;;;;;0.00;0.00;;;18.90;88.30;;;;;;5093083;28;20268;-61
2023/05/01 09:25:33;;;;;;;0.00;0.00;;;18.90;87.40;;;;;;5093941;28;20237;-60
2023/05/01 09:28:00;;;;;;;0.00;0.00;;;18.90;85.30;;;;;;5093204;28;20177;-61
2023/05/01 09:30:36;;;;;;;0.00;0.00;;;18.90;86.00;;;;;;5093928;28;20196;-60
2023/05/01 09:33:09;;;;;;;0.00;0.00;;;19.00;86.90;;;;;;5093821;28;20225;-60
2023/05/01 09:35:52;;;;;;;0.00;0.00;;;19.20;84.70;;;;;;5093852;28;20187;-60
2023/05/01 09:38:25;;;;;;;0.00;0.00;;;19.30;84.20;;;;;;5093785;28;20216;-60
2023/05/01 09:40:52;;;;;;;0.00;0.00;;;19.30;84.30;;;;;;5094078;28;20609;-61
2023/05/01 09:43:25;;;;;;;0.00;0.00;;;19.30;83.60;;;;;;5093337;28;20188;-60
2023/05/01 09:46:11;;;;;;;0.00;0.00;;;19.30;82.90;;;;;;5093757;28;20176;-61
2023/05/01 09:48:37;;;;;;;0.00;0.00;;;19.40;84.20;;;;;;5093546;28;20295;-60
2023/05/01 09:51:27;;;;;;;0.00;0.00;;;19.50;84.70;;;;;;5093403;28;20274;-60
2023/05/01 09:54:01;;;;;;;0.00;0.00;;;19.70;84.10;;;;;;5093371;28;20275;-60
2023/05/01 09:56:29;;;;;;;0.20;0.15;;;19.90;84.20;;;;;;5093660;28;20180;-60
2023/05/01 09:58:56;;;;;;;0.00;0.00;;;20.30;83.30;;;;;;5092767;28;20204;-60
2023/05/01 10:01:43;;;;;;;0.00;0.00;;;20.60;80.10;;;;;;5081677;28;20172;-60
2023/05/01 10:04:08;;;;;;;0.00;0.00;;;20.80;79.80;;;;;;5086110;28;20743;-62
2023/05/01 10:06:35;;;;;;;0.00;0.00;;;20.90;79.80;;;;;;5093464;28;20211;-62
2023/05/01 10:09:02;;;;;;;0.00;0.00;;;21.00;79.10;;;;;;5093625;28;20239;-61
2023/05/01 10:11:28;;;;;;;0.00;0.00;;;21.00;77.40;;;;;;5093173;28;20176;-61
2023/05/01 10:14:09;;;;;;;0.00;0.00;;;21.00;77.10;;;;;;5092699;28;20182;-61
2023/05/01 10:16:36;;;;;;;0.00;0.00;;;21.30;79.30;;;;;;5073287;28;20184;-61
2023/05/01 10:19:03;;;;;;;0.00;0.00;;;21.70;78.60;;;;;;5087308;28;20183;-61
2023/05/01 10:21:31;;;;;;;0.00;0.00;;;22.30;74.50;;;;;;5093478;28;20203;-62
2023/05/01 10:23:57;;;;;;;0.00;0.00;;;22.70;73.10;;;;;;5092396;28;20220;-61
2023/05/01 10:26:25;;;;;;;0.00;0.00;;;23.10;71.30;;;;;;5093145;28;20184;-62
2023/05/01 10:28:51;;;;;;;0.00;0.00;;;23.40;69.70;;;;;;5092315;28;20717;-61
2023/05/01 10:31:17;;;;;;;0.00;0.00;;;22.30;68.00;;;;;;5092423;28;20761;-61
2023/05/01 10:33:44;;;;;;;0.00;0.00;;;22.00;70.70;;;;;;5091821;28;20267;-61
2023/05/01 10:36:22;;;;;;;0.00;0.00;;;21.50;70.70;;;;;;5091320;28;20299;-62
2023/05/01 10:38:48;;;;;;;0.00;0.00;;;21.00;73.20;;;;;;5092889;28;20181;-62
2023/05/01 10:41:36;;;;;;;0.10;0.10;;;20.90;74.10;;;;;;5092745;28;20203;-62
2023/05/01 10:44:22;;;;;;;0.00;0.00;;;21.00;73.80;;;;;;5091190;28;20194;-61
2023/05/01 10:46:47;;;;;;;0.00;0.00;;;21.10;74.80;;;;;;5072583;28;20180;-61
2023/05/01 10:49:13;;;;;;;0.00;0.00;;;21.30;75.10;;;;;;5083214;28;20216;-61
2023/05/01 10:51:57;;;;;;;0.10;0.10;;;21.40;74.80;;;;;;5092597;28;20230;-60
2023/05/01 10:54:30;;;;;;;0.00;0.00;;;21.50;75.20;;;;;;5092759;28;20263;-61
2023/05/01 10:57:00;;;;;;;0.10;0.10;;;21.40;75.00;;;;;;5092476;28;20196;-62
2023/05/01 10:59:58;;;;;;;0.00;0.00;;;21.30;75.40;;;;;;5090752;28;20643;-61
2023/05/01 11:02:24;;;;;;;0.00;0.00;;;21.40;76.30;;;;;;5080169;28;20184;-62
2023/05/01 11:04:52;;;;;;;0.00;0.00;;;21.50;75.30;;;;;;5091990;28;20603;-62
2023/05/01 11:07:19;;;;;;;0.00;0.00;;;21.60;75.40;;;;;;5092424;28;20217;-62
2023/05/01 11:09:49;;;;;;;0.00;0.00;;;21.70;74.60;;;;;;5092322;28;20223;-62
2023/05/01 11:12:44;;;;;;;0.00;0.00;;;21.70;75.40;;;;;;5092419;28;20169;-62
2023/05/01 11:15:10;;;;;;;0.00;0.00;;;21.70;75.50;;;;;;5081011;28;20179;-62
2023/05/01 11:17:39;;;;;;;0.00;0.00;;;21.70;75.60;;;;;;5072227;28;20176;-62
2023/05/01 11:20:06;;;;;;;0.00;0.00;;;21.80;75.20;;;;;;5071806;28;20640;-62
2023/05/01 11:22:32;;;;;;;0.00;0.00;;;21.70;76.10;;;;;;5072139;28;20256;-62
2023/05/01 11:24:59;;;;;;;0.00;0.00;;;21.70;77.70;;;;;;5071733;28;20229;-62
2023/05/01 11:27:25;;;;;;;0.10;0.08;;;21.70;78.60;;;;;;5071726;28;20173;-62
2023/05/01 11:29:52;;;;;;;0.00;0.00;;;21.60;78.40;;;;;;5084034;28;20251;-62
2023/05/01 11:32:26;;;;;;;0.05;0.05;;;21.60;77.10;;;;;;5091444;28;20249;-62
2023/05/01 11:34:52;;;;;;;0.00;0.00;;;21.60;77.10;;;;;;5091778;28;20207;-62
2023/05/01 11:37:18;;;;;;;0.00;0.00;;;21.70;76.30;;;;;;5091445;28;20179;-62
2023/05/01 11:39:52;;;;;;;0.00;0.00;;;21.60;75.70;;;;;;5091421;28;20187;-62
2023/05/01 11:42:23;;;;;;;0.00;0.00;;;21.50;76.50;;;;;;5091737;28;20686;-62
2023/05/01 11:45:09;;;;;;;0.00;0.00;;;21.70;77.60;;;;;;5091519;28;20270;-61
2023/05/01 11:47:35;;;;;;;0.00;0.00;;;21.80;76.50;;;;;;5091409;28;20209;-62
2023/05/01 11:50:01;;;;;;;0.00;0.00;;;21.60;77.20;;;;;;5091341;28;20302;-62
2023/05/01 11:52:28;;;;;;;0.00;0.00;;;21.70;78.40;;;;;;5091557;28;20259;-62
2023/05/01 11:54:53;;;;;;;0.05;0.05;;;21.80;77.80;;;;;;5091646;28;20278;-62
2023/05/01 11:57:19;;;;;;;0.00;0.00;;;21.90;76.70;;;;;;5091705;28;20659;-61
2023/05/01 11:59:48;;;;;;;0.00;0.00;;;21.90;78.30;;;;;;5091464;28;20175;-61
2023/05/01 12:02:20;;;;;;;0.00;0.00;;;22.00;77.00;;;;;;5091393;28;20625;-61
2023/05/01 12:04:46;;;;;;;0.00;0.00;;;22.00;77.20;;;;;;5091507;28;20172;-61
2023/05/01 12:07:22;;;;;;;0.00;0.00;;;21.80;76.60;;;;;;5091342;28;20726;-61
2023/05/01 12:09:49;;;;;;;0.00;0.00;;;21.80;76.90;;;;;;5091290;28;20203;-61
2023/05/01 12:12:15;;;;;;;0.00;0.00;;;21.80;77.60;;;;;;5091102;28;20171;-62
2023/05/01 12:14:42;;;;;;;0.00;0.00;;;21.90;76.60;;;;;;5091447;28;20650;-61
2023/05/01 12:17:10;;;;;;;0.43;0.30;;;21.80;76.50;;;;;;5091335;28;20172;-61
2023/05/01 12:19:47;;;;;;;0.00;0.00;;;21.60;75.40;;;;;;5089839;28;20643;-61
2023/05/01 12:22:13;;;;;;;0.00;0.00;;;21.60;77.60;;;;;;5091198;28;20654;-61
2023/05/01 12:24:53;;;;;;;0.10;0.10;;;21.40;75.80;;;;;;5091146;28;20224;-61
2023/05/01 12:27:19;;;;;;;0.00;0.00;;;21.10;77.40;;;;;;5091229;28;20253;-62
2023/05/01 12:29:48;;;;;;;0.45;0.45;;;20.70;77.50;;;;;;5091095;28;20234;-61
2023/05/01 12:32:15;;;;;;;0.00;0.00;;;20.50;79.30;;;;;;5091070;28;20191;-61
2023/05/01 12:34:41;;;;;;;0.00;0.00;;;20.30;80.70;;;;;;5091283;28;20172;-62
2023/05/01 12:37:06;;;;;;;0.00;0.00;;;20.30;81.30;;;;;;5091091;28;20199;-61
2023/05/01 12:39:50;;;;;;;0.00;0.00;;;20.20;81.60;;;;;;5091018;28;20692;-62
2023/05/01 12:42:16;;;;;;;0.00;0.00;;;20.30;82.70;;;;;;5090912;28;20172;-61
2023/05/01 12:44:42;;;;;;;0.00;0.00;;;20.20;82.70;;;;;;5090694;28;20215;-61
2023/05/01 12:47:08;;;;;;;0.00;0.00;;;20.10;83.30;;;;;;5070835;28;20187;-61
2023/05/01 12:49:35;;;;;;;0.00;0.00;;;20.30;84.30;;;;;;5083287;28;20302;-61
2023/05/01 12:52:03;;;;;;;0.00;0.00;;;20.40;85.10;;;;;;5090673;28;20176;-61